Scott Nathan — WDC8788 — position and weather

sailwx.info

Track history (hours):
 
Tides and Currents Weather Stations Pressure Air Temp Water Temp Dewpoint Dewpoint Depression Visibility Wind Speed Wind Dir Waves Ship Positions

Scott Nathan

Owner: BRINDLEY, JAMES A, BARNEGAT LIGHT, NJ. More information available from US FCC via Universal Licensing System and Coast Guard Vessel Documentation Center.

Last reported at 2017-Sep-14 00:30 UTC. Time now 2017-Sep-22 18:57 UTC.
Position N 39°46' W 074°07'.
Warning: this ship's position is 8 days out of date.

Length 16 m.

Type: Fishing. MMSI: 367093070.

Date/timePositionNaut miles runAvg speedWind from/ knotsBaromVisibWave heightAir tempDewpointWater temp
2017-Sep-14 00:30N 39°46' W 074°07'6 0.3
2017-Sep-13 05:33N 39°42' W 074°01'0 2.9
2017-Sep-13 05:30N 39°42' W 074°01'6 0.2
2017-Sep-11 18:23N 39°46' W 074°07'0 0.0
2017-Sep-11 17:47N 39°46' W 074°07'0 0.0
2017-Sep-11 17:17N 39°46' W 074°07'0 0.0
2017-Sep-11 16:53N 39°46' W 074°07'0 0.0
2017-Sep-11 16:17N 39°46' W 074°07'0 0.0
2017-Sep-11 15:47N 39°46' W 074°07'0 0.0
2017-Sep-11 15:29N 39°46' W 074°07'  
2017-Sep-04 09:40N 39°40' W 074°07'1 6.5
2017-Sep-04 09:27N 39°41' W 074°07'3 6.4
2017-Sep-04 09:00N 39°43' W 074°05'3 5.2
2017-Sep-04 08:30N 39°46' W 074°06'  
Track history (hours):
 
Tides and Currents Weather Stations Pressure Air Temp Water Temp Dewpoint Dewpoint Depression Visibility Wind Speed Wind Dir Waves Ship Positions

Scott Nathan

Owner: BRINDLEY, JAMES A, BARNEGAT LIGHT, NJ. More information available from US FCC via Universal Licensing System and Coast Guard Vessel Documentation Center.

Last reported at 2017-Sep-14 00:30 UTC. Time now 2017-Sep-22 18:57 UTC.
Position N 39°46' W 074°07'.
Warning: this ship's position is 8 days out of date.

Length 16 m.

Type: Fishing. MMSI: 367093070.

Date/timePositionNaut miles runAvg speedWind from/ knotsBaromVisibWave heightAir tempDewpointWater temp
2017-Sep-14 00:30N 39°46' W 074°07'6 0.3
2017-Sep-13 05:33N 39°42' W 074°01'0 2.9
2017-Sep-13 05:30N 39°42' W 074°01'6 0.2
2017-Sep-11 18:23N 39°46' W 074°07'0 0.0
2017-Sep-11 17:47N 39°46' W 074°07'0 0.0
2017-Sep-11 17:17N 39°46' W 074°07'0 0.0
2017-Sep-11 16:53N 39°46' W 074°07'0 0.0
2017-Sep-11 16:17N 39°46' W 074°07'0 0.0
2017-Sep-11 15:47N 39°46' W 074°07'0 0.0
2017-Sep-11 15:29N 39°46' W 074°07'  
2017-Sep-04 09:40N 39°40' W 074°07'1 6.5
2017-Sep-04 09:27N 39°41' W 074°07'3 6.4
2017-Sep-04 09:00N 39°43' W 074°05'3 5.2
2017-Sep-04 08:30N 39°46' W 074°06'  

Dump ship's entire track history